sensor_id;sensor_type;location;lat;lon;timestamp;temperature;humidity
31677;DHT22;18385;51.572;6.578;2023-01-04T00:01:10;11.50;66.40
31677;DHT22;18385;51.572;6.578;2023-01-04T00:03:37;11.50;66.40
31677;DHT22;18385;51.572;6.578;2023-01-04T00:06:04;11.50;66.40
31677;DHT22;18385;51.572;6.578;2023-01-04T00:08:31;11.50;66.30
31677;DHT22;18385;51.572;6.578;2023-01-04T00:11:02;11.60;66.40
31677;DHT22;18385;51.572;6.578;2023-01-04T00:13:32;11.60;66.30
31677;DHT22;18385;51.572;6.578;2023-01-04T00:15:59;11.70;66.30
31677;DHT22;18385;51.572;6.578;2023-01-04T00:18:29;11.70;66.30
31677;DHT22;18385;51.572;6.578;2023-01-04T00:21:04;11.70;66.20
31677;DHT22;18385;51.572;6.578;2023-01-04T00:23:30;11.70;66.20
31677;DHT22;18385;51.572;6.578;2023-01-04T00:25:56;11.70;66.20
31677;DHT22;18385;51.572;6.578;2023-01-04T00:28:22;11.70;66.20
31677;DHT22;18385;51.572;6.578;2023-01-04T00:30:48;11.70;66.30
31677;DHT22;18385;51.572;6.578;2023-01-04T00:33:13;11.80;66.30
31677;DHT22;18385;51.572;6.578;2023-01-04T00:35:39;11.80;66.30
31677;DHT22;18385;51.572;6.578;2023-01-04T00:38:05;11.80;66.40
31677;DHT22;18385;51.572;6.578;2023-01-04T00:40:30;11.80;66.40
31677;DHT22;18385;51.572;6.578;2023-01-04T00:42:56;11.80;66.50
31677;DHT22;18385;51.572;6.578;2023-01-04T00:45:22;11.80;66.40
31677;DHT22;18385;51.572;6.578;2023-01-04T00:47:48;11.80;66.50
31677;DHT22;18385;51.572;6.578;2023-01-04T00:50:13;11.80;66.50
31677;DHT22;18385;51.572;6.578;2023-01-04T00:52:39;11.90;66.70
31677;DHT22;18385;51.572;6.578;2023-01-04T00:55:05;11.90;66.70
31677;DHT22;18385;51.572;6.578;2023-01-04T00:57:31;11.90;66.60
31677;DHT22;18385;51.572;6.578;2023-01-04T00:59:57;11.90;66.60
31677;DHT22;18385;51.572;6.578;2023-01-04T01:02:22;11.90;66.60
31677;DHT22;18385;51.572;6.578;2023-01-04T01:04:48;11.90;66.70
31677;DHT22;18385;51.572;6.578;2023-01-04T01:07:14;11.90;66.80
31677;DHT22;18385;51.572;6.578;2023-01-04T01:09:39;11.90;66.80
31677;DHT22;18385;51.572;6.578;2023-01-04T01:12:05;11.90;66.80
31677;DHT22;18385;51.572;6.578;2023-01-04T01:14:31;11.90;66.90
31677;DHT22;18385;51.572;6.578;2023-01-04T01:16:57;11.90;67.00
31677;DHT22;18385;51.572;6.578;2023-01-04T01:19:23;11.90;67.00
31677;DHT22;18385;51.572;6.578;2023-01-04T01:21:49;11.90;67.10
31677;DHT22;18385;51.572;6.578;2023-01-04T01:24:17;11.90;67.20
31677;DHT22;18385;51.572;6.578;2023-01-04T01:26:43;11.90;67.20
31677;DHT22;18385;51.572;6.578;2023-01-04T01:29:09;11.90;67.40
31677;DHT22;18385;51.572;6.578;2023-01-04T01:31:34;11.90;67.50
31677;DHT22;18385;51.572;6.578;2023-01-04T01:34:01;11.90;67.50
31677;DHT22;18385;51.572;6.578;2023-01-04T01:36:26;11.90;67.60
31677;DHT22;18385;51.572;6.578;2023-01-04T01:38:53;11.90;67.60
31677;DHT22;18385;51.572;6.578;2023-01-04T01:41:20;11.90;67.60
31677;DHT22;18385;51.572;6.578;2023-01-04T01:46:27;11.90;67.60
31677;DHT22;18385;51.572;6.578;2023-01-04T01:48:58;11.90;67.60
31677;DHT22;18385;51.572;6.578;2023-01-04T01:51:25;11.80;67.80
31677;DHT22;18385;51.572;6.578;2023-01-04T01:53:55;11.80;67.90
31677;DHT22;18385;51.572;6.578;2023-01-04T01:56:25;11.80;68.10
31677;DHT22;18385;51.572;6.578;2023-01-04T01:58:53;11.80;68.20
31677;DHT22;18385;51.572;6.578;2023-01-04T02:01:19;11.80;68.30
31677;DHT22;18385;51.572;6.578;2023-01-04T02:03:45;11.80;68.30
31677;DHT22;18385;51.572;6.578;2023-01-04T02:06:18;11.80;68.40
31677;DHT22;18385;51.572;6.578;2023-01-04T02:08:46;11.80;68.50
31677;DHT22;18385;51.572;6.578;2023-01-04T02:11:13;11.80;68.50
31677;DHT22;18385;51.572;6.578;2023-01-04T02:13:40;11.80;68.60
31677;DHT22;18385;51.572;6.578;2023-01-04T02:22:28;11.80;68.90
31677;DHT22;18385;51.572;6.578;2023-01-04T02:27:54;11.90;69.00
31677;DHT22;18385;51.572;6.578;2023-01-04T02:36:30;12.00;69.20
31677;DHT22;18385;51.572;6.578;2023-01-04T02:39:18;11.90;69.20
31677;DHT22;18385;51.572;6.578;2023-01-04T02:41:54;12.00;69.50
31677;DHT22;18385;51.572;6.578;2023-01-04T02:44:37;12.00;69.60
31677;DHT22;18385;51.572;6.578;2023-01-04T02:47:23;12.00;69.60
31677;DHT22;18385;51.572;6.578;2023-01-04T02:50:27;12.10;69.80
31677;DHT22;18385;51.572;6.578;2023-01-04T02:53:09;12.10;69.70
31677;DHT22;18385;51.572;6.578;2023-01-04T02:56:14;12.10;69.70
31677;DHT22;18385;51.572;6.578;2023-01-04T03:01:49;12.20;69.90
31677;DHT22;18385;51.572;6.578;2023-01-04T03:10:35;12.30;70.10
31677;DHT22;18385;51.572;6.578;2023-01-04T03:13:25;12.40;70.10
31677;DHT22;18385;51.572;6.578;2023-01-04T03:16:02;12.50;70.00
31677;DHT22;18385;51.572;6.578;2023-01-04T03:18:34;12.50;70.00
31677;DHT22;18385;51.572;6.578;2023-01-04T03:21:03;12.60;70.10
31677;DHT22;18385;51.572;6.578;2023-01-04T03:23:34;12.60;70.10
31677;DHT22;18385;51.572;6.578;2023-01-04T03:26:40;12.60;70.00
31677;DHT22;18385;51.572;6.578;2023-01-04T03:29:38;12.70;70.10
31677;DHT22;18385;51.572;6.578;2023-01-04T03:35:35;12.70;70.30
31677;DHT22;18385;51.572;6.578;2023-01-04T03:38:27;12.70;70.40
31677;DHT22;18385;51.572;6.578;2023-01-04T03:44:30;12.60;70.40
31677;DHT22;18385;51.572;6.578;2023-01-04T03:47:25;12.60;70.60
31677;DHT22;18385;51.572;6.578;2023-01-04T03:50:22;12.50;70.60
31677;DHT22;18385;51.572;6.578;2023-01-04T03:52:50;12.50;70.80
31677;DHT22;18385;51.572;6.578;2023-01-04T03:55:17;12.60;71.70
31677;DHT22;18385;51.572;6.578;2023-01-04T03:57:44;12.60;71.00
31677;DHT22;18385;51.572;6.578;2023-01-04T04:00:12;12.70;71.00
31677;DHT22;18385;51.572;6.578;2023-01-04T04:02:41;12.70;71.00
31677;DHT22;18385;51.572;6.578;2023-01-04T04:05:07;12.70;70.90
31677;DHT22;18385;51.572;6.578;2023-01-04T04:07:54;12.80;70.90
31677;DHT22;18385;51.572;6.578;2023-01-04T04:10:38;12.80;71.00
31677;DHT22;18385;51.572;6.578;2023-01-04T04:13:04;12.80;70.90
31677;DHT22;18385;51.572;6.578;2023-01-04T04:15:30;12.80;70.90
31677;DHT22;18385;51.572;6.578;2023-01-04T04:17:55;12.80;70.90
31677;DHT22;18385;51.572;6.578;2023-01-04T04:20:21;12.90;71.00
31677;DHT22;18385;51.572;6.578;2023-01-04T04:22:47;12.90;71.00
31677;DHT22;18385;51.572;6.578;2023-01-04T04:25:12;12.90;71.10
31677;DHT22;18385;51.572;6.578;2023-01-04T04:27:38;13.00;71.10
31677;DHT22;18385;51.572;6.578;2023-01-04T04:30:04;13.00;71.10
31677;DHT22;18385;51.572;6.578;2023-01-04T04:32:30;13.00;71.20
31677;DHT22;18385;51.572;6.578;2023-01-04T04:34:56;13.00;71.20
31677;DHT22;18385;51.572;6.578;2023-01-04T04:37:22;13.00;71.20
31677;DHT22;18385;51.572;6.578;2023-01-04T04:39:47;13.00;71.20
31677;DHT22;18385;51.572;6.578;2023-01-04T04:42:13;13.10;71.30
31677;DHT22;18385;51.572;6.578;2023-01-04T04:44:39;13.10;71.40
31677;DHT22;18385;51.572;6.578;2023-01-04T04:47:04;13.10;71.40
31677;DHT22;18385;51.572;6.578;2023-01-04T04:49:30;13.10;71.30
31677;DHT22;18385;51.572;6.578;2023-01-04T04:51:56;13.20;71.30
31677;DHT22;18385;51.572;6.578;2023-01-04T04:54:22;13.20;71.20
31677;DHT22;18385;51.572;6.578;2023-01-04T04:56:49;13.20;71.20
31677;DHT22;18385;51.572;6.578;2023-01-04T04:59:15;13.30;71.40
31677;DHT22;18385;51.572;6.578;2023-01-04T05:01:41;13.30;71.30
31677;DHT22;18385;51.572;6.578;2023-01-04T05:04:07;13.30;71.40
31677;DHT22;18385;51.572;6.578;2023-01-04T05:06:33;13.30;71.30
31677;DHT22;18385;51.572;6.578;2023-01-04T05:08:59;13.30;71.30
31677;DHT22;18385;51.572;6.578;2023-01-04T05:11:25;13.40;71.40
31677;DHT22;18385;51.572;6.578;2023-01-04T05:14:09;13.40;71.30
31677;DHT22;18385;51.572;6.578;2023-01-04T05:16:35;13.40;72.10
31677;DHT22;18385;51.572;6.578;2023-01-04T05:19:01;13.40;71.40
31677;DHT22;18385;51.572;6.578;2023-01-04T05:21:27;13.40;71.40
31677;DHT22;18385;51.572;6.578;2023-01-04T05:23:53;13.40;71.50
31677;DHT22;18385;51.572;6.578;2023-01-04T05:26:18;13.40;71.60
31677;DHT22;18385;51.572;6.578;2023-01-04T05:28:44;13.40;71.50
31677;DHT22;18385;51.572;6.578;2023-01-04T05:31:10;13.50;71.60
31677;DHT22;18385;51.572;6.578;2023-01-04T05:33:35;13.50;71.60
31677;DHT22;18385;51.572;6.578;2023-01-04T05:36:02;13.50;71.60
31677;DHT22;18385;51.572;6.578;2023-01-04T05:38:29;13.50;71.60
31677;DHT22;18385;51.572;6.578;2023-01-04T05:40:55;13.50;71.60
31677;DHT22;18385;51.572;6.578;2023-01-04T05:43:22;13.50;71.50
31677;DHT22;18385;51.572;6.578;2023-01-04T05:45:51;13.50;71.50
31677;DHT22;18385;51.572;6.578;2023-01-04T05:48:18;13.60;71.60
31677;DHT22;18385;51.572;6.578;2023-01-04T05:50:44;13.60;71.60
31677;DHT22;18385;51.572;6.578;2023-01-04T05:53:13;13.50;71.50
31677;DHT22;18385;51.572;6.578;2023-01-04T05:55:39;13.60;71.60
31677;DHT22;18385;51.572;6.578;2023-01-04T05:58:04;13.60;71.60
31677;DHT22;18385;51.572;6.578;2023-01-04T06:00:30;13.60;71.60
31677;DHT22;18385;51.572;6.578;2023-01-04T06:02:56;13.60;72.00
31677;DHT22;18385;51.572;6.578;2023-01-04T06:05:24;13.70;71.60
31677;DHT22;18385;51.572;6.578;2023-01-04T06:07:50;13.70;71.60
31677;DHT22;18385;51.572;6.578;2023-01-04T06:10:17;13.70;71.60
31677;DHT22;18385;51.572;6.578;2023-01-04T06:12:43;13.70;71.50
31677;DHT22;18385;51.572;6.578;2023-01-04T06:15:10;13.70;71.50
31677;DHT22;18385;51.572;6.578;2023-01-04T06:17:37;13.80;71.60
31677;DHT22;18385;51.572;6.578;2023-01-04T06:20:05;13.70;71.60
31677;DHT22;18385;51.572;6.578;2023-01-04T06:22:31;13.80;71.60
31677;DHT22;18385;51.572;6.578;2023-01-04T06:24:57;13.80;71.50
31677;DHT22;18385;51.572;6.578;2023-01-04T06:27:23;13.90;71.60
31677;DHT22;18385;51.572;6.578;2023-01-04T06:29:50;13.90;71.50
31677;DHT22;18385;51.572;6.578;2023-01-04T06:32:16;13.80;71.50
31677;DHT22;18385;51.572;6.578;2023-01-04T06:34:41;13.80;71.60
31677;DHT22;18385;51.572;6.578;2023-01-04T06:37:07;13.80;71.60
31677;DHT22;18385;51.572;6.578;2023-01-04T06:39:34;13.80;71.60
31677;DHT22;18385;51.572;6.578;2023-01-04T06:42:01;13.80;71.60
31677;DHT22;18385;51.572;6.578;2023-01-04T06:44:27;13.80;71.70
31677;DHT22;18385;51.572;6.578;2023-01-04T06:46:53;13.80;71.70
31677;DHT22;18385;51.572;6.578;2023-01-04T06:49:18;13.90;71.70
31677;DHT22;18385;51.572;6.578;2023-01-04T06:51:44;13.90;71.70
31677;DHT22;18385;51.572;6.578;2023-01-04T06:54:10;13.90;71.70
31677;DHT22;18385;51.572;6.578;2023-01-04T06:56:41;13.90;71.70
31677;DHT22;18385;51.572;6.578;2023-01-04T06:59:07;14.00;71.80
31677;DHT22;18385;51.572;6.578;2023-01-04T07:01:34;14.00;71.70
31677;DHT22;18385;51.572;6.578;2023-01-04T07:04:00;14.00;71.70
31677;DHT22;18385;51.572;6.578;2023-01-04T07:06:26;14.00;71.80
31677;DHT22;18385;51.572;6.578;2023-01-04T07:08:52;14.00;71.70
31677;DHT22;18385;51.572;6.578;2023-01-04T07:11:19;14.00;71.80
31677;DHT22;18385;51.572;6.578;2023-01-04T07:13:45;14.00;71.70
31677;DHT22;18385;51.572;6.578;2023-01-04T07:16:10;14.00;71.70
31677;DHT22;18385;51.572;6.578;2023-01-04T07:18:36;14.00;71.70
31677;DHT22;18385;51.572;6.578;2023-01-04T07:21:02;13.90;71.90
31677;DHT22;18385;51.572;6.578;2023-01-04T07:23:28;13.90;72.00
31677;DHT22;18385;51.572;6.578;2023-01-04T07:25:53;13.90;72.20
31677;DHT22;18385;51.572;6.578;2023-01-04T07:28:19;13.90;72.30
31677;DHT22;18385;51.572;6.578;2023-01-04T07:31:05;13.90;72.30
31677;DHT22;18385;51.572;6.578;2023-01-04T07:33:32;13.90;72.30
31677;DHT22;18385;51.572;6.578;2023-01-04T07:36:05;13.90;72.40
31677;DHT22;18385;51.572;6.578;2023-01-04T07:38:34;13.90;72.40
31677;DHT22;18385;51.572;6.578;2023-01-04T07:41:00;13.90;72.30
31677;DHT22;18385;51.572;6.578;2023-01-04T07:43:26;14.00;72.50
31677;DHT22;18385;51.572;6.578;2023-01-04T07:45:52;13.90;72.60
31677;DHT22;18385;51.572;6.578;2023-01-04T07:48:18;13.90;72.50
31677;DHT22;18385;51.572;6.578;2023-01-04T07:50:44;14.00;72.60
31677;DHT22;18385;51.572;6.578;2023-01-04T07:53:10;14.10;72.60
31677;DHT22;18385;51.572;6.578;2023-01-04T07:55:36;14.00;72.50
31677;DHT22;18385;51.572;6.578;2023-01-04T07:58:02;14.10;72.50
31677;DHT22;18385;51.572;6.578;2023-01-04T08:00:28;14.20;72.50
31677;DHT22;18385;51.572;6.578;2023-01-04T08:02:54;14.20;72.40
31677;DHT22;18385;51.572;6.578;2023-01-04T08:05:20;14.30;72.50
31677;DHT22;18385;51.572;6.578;2023-01-04T08:07:47;14.30;72.50
31677;DHT22;18385;51.572;6.578;2023-01-04T08:10:13;14.40;72.40
31677;DHT22;18385;51.572;6.578;2023-01-04T08:12:38;14.40;72.30
31677;DHT22;18385;51.572;6.578;2023-01-04T08:15:05;14.50;73.10
31677;DHT22;18385;51.572;6.578;2023-01-04T08:17:30;14.50;72.30
31677;DHT22;18385;51.572;6.578;2023-01-04T08:19:56;14.50;72.30
31677;DHT22;18385;51.572;6.578;2023-01-04T08:22:22;14.60;72.20
31677;DHT22;18385;51.572;6.578;2023-01-04T08:24:48;14.60;72.20
31677;DHT22;18385;51.572;6.578;2023-01-04T08:27:14;14.60;72.10
31677;DHT22;18385;51.572;6.578;2023-01-04T08:29:40;14.60;72.00
31677;DHT22;18385;51.572;6.578;2023-01-04T08:32:05;14.70;72.00
31677;DHT22;18385;51.572;6.578;2023-01-04T08:34:31;14.70;72.00
31677;DHT22;18385;51.572;6.578;2023-01-04T08:36:57;14.70;72.00
31677;DHT22;18385;51.572;6.578;2023-01-04T08:39:23;14.70;72.00
31677;DHT22;18385;51.572;6.578;2023-01-04T08:41:49;14.80;72.00
31677;DHT22;18385;51.572;6.578;2023-01-04T08:44:17;14.80;71.90
31677;DHT22;18385;51.572;6.578;2023-01-04T08:46:43;14.80;71.90
31677;DHT22;18385;51.572;6.578;2023-01-04T08:49:09;14.90;71.90
31677;DHT22;18385;51.572;6.578;2023-01-04T08:51:35;14.90;71.80
31677;DHT22;18385;51.572;6.578;2023-01-04T08:54:01;14.90;71.70
31677;DHT22;18385;51.572;6.578;2023-01-04T08:56:26;14.90;71.70
31677;DHT22;18385;51.572;6.578;2023-01-04T08:58:53;14.90;71.60
31677;DHT22;18385;51.572;6.578;2023-01-04T09:01:19;15.00;71.60
31677;DHT22;18385;51.572;6.578;2023-01-04T09:03:44;15.00;71.70
31677;DHT22;18385;51.572;6.578;2023-01-04T09:06:12;15.00;71.60
31677;DHT22;18385;51.572;6.578;2023-01-04T09:08:39;15.00;71.60
31677;DHT22;18385;51.572;6.578;2023-01-04T09:11:07;15.00;71.60
31677;DHT22;18385;51.572;6.578;2023-01-04T09:13:34;14.90;71.60
31677;DHT22;18385;51.572;6.578;2023-01-04T09:16:02;15.00;71.60
31677;DHT22;18385;51.572;6.578;2023-01-04T09:18:29;15.00;71.60
31677;DHT22;18385;51.572;6.578;2023-01-04T09:20:55;15.00;71.60
31677;DHT22;18385;51.572;6.578;2023-01-04T09:23:21;15.00;71.60
31677;DHT22;18385;51.572;6.578;2023-01-04T09:25:47;15.10;71.60
31677;DHT22;18385;51.572;6.578;2023-01-04T09:28:13;15.10;71.60
31677;DHT22;18385;51.572;6.578;2023-01-04T09:30:38;15.10;71.60
31677;DHT22;18385;51.572;6.578;2023-01-04T09:33:04;15.10;71.60
31677;DHT22;18385;51.572;6.578;2023-01-04T09:35:30;15.10;71.60
31677;DHT22;18385;51.572;6.578;2023-01-04T09:37:56;15.10;71.60
31677;DHT22;18385;51.572;6.578;2023-01-04T09:40:37;15.00;71.50
31677;DHT22;18385;51.572;6.578;2023-01-04T09:43:04;15.00;71.60
31677;DHT22;18385;51.572;6.578;2023-01-04T09:45:36;15.00;71.60
31677;DHT22;18385;51.572;6.578;2023-01-04T09:48:16;15.00;71.70
31677;DHT22;18385;51.572;6.578;2023-01-04T09:50:51;15.10;71.80
31677;DHT22;18385;51.572;6.578;2023-01-04T09:55:49;15.10;71.80
31677;DHT22;18385;51.572;6.578;2023-01-04T09:58:27;15.20;71.80
31677;DHT22;18385;51.572;6.578;2023-01-04T10:01:12;15.20;71.70
31677;DHT22;18385;51.572;6.578;2023-01-04T10:03:46;15.20;71.60
31677;DHT22;18385;51.572;6.578;2023-01-04T10:06:15;15.20;71.50
31677;DHT22;18385;51.572;6.578;2023-01-04T10:08:42;15.30;71.60
31677;DHT22;18385;51.572;6.578;2023-01-04T10:19:03;15.30;71.40
31677;DHT22;18385;51.572;6.578;2023-01-04T10:21:53;15.30;71.40
31677;DHT22;18385;51.572;6.578;2023-01-04T10:27:03;15.30;71.50
31677;DHT22;18385;51.572;6.578;2023-01-04T10:29:46;15.30;71.50
31677;DHT22;18385;51.572;6.578;2023-01-04T10:32:40;15.40;72.30
31677;DHT22;18385;51.572;6.578;2023-01-04T10:35:22;15.40;71.60
31677;DHT22;18385;51.572;6.578;2023-01-04T10:37:57;15.50;71.50
31677;DHT22;18385;51.572;6.578;2023-01-04T10:40:24;15.50;71.40
31677;DHT22;18385;51.572;6.578;2023-01-04T10:42:55;15.50;71.40
31677;DHT22;18385;51.572;6.578;2023-01-04T10:46:09;15.50;72.20
31677;DHT22;18385;51.572;6.578;2023-01-04T10:51:32;15.60;71.50
31677;DHT22;18385;51.572;6.578;2023-01-04T10:54:01;15.60;71.40
31677;DHT22;18385;51.572;6.578;2023-01-04T10:59:27;15.60;71.30
31677;DHT22;18385;51.572;6.578;2023-01-04T11:04:59;15.70;71.20
31677;DHT22;18385;51.572;6.578;2023-01-04T11:07:40;15.60;71.20
31677;DHT22;18385;51.572;6.578;2023-01-04T11:12:41;15.60;71.30
31677;DHT22;18385;51.572;6.578;2023-01-04T11:15:08;15.60;71.30
31677;DHT22;18385;51.572;6.578;2023-01-04T11:17:34;15.60;71.30
31677;DHT22;18385;51.572;6.578;2023-01-04T11:20:00;15.60;71.30
31677;DHT22;18385;51.572;6.578;2023-01-04T11:22:35;15.60;71.40
31677;DHT22;18385;51.572;6.578;2023-01-04T11:25:05;15.50;71.30
31677;DHT22;18385;51.572;6.578;2023-01-04T11:27:43;15.50;71.40
31677;DHT22;18385;51.572;6.578;2023-01-04T11:30:23;15.40;71.40
31677;DHT22;18385;51.572;6.578;2023-01-04T11:33:02;15.40;71.60
31677;DHT22;18385;51.572;6.578;2023-01-04T11:35:48;15.30;71.70
31677;DHT22;18385;51.572;6.578;2023-01-04T11:38:17;15.30;71.80
31677;DHT22;18385;51.572;6.578;2023-01-04T11:41:09;15.30;71.90
31677;DHT22;18385;51.572;6.578;2023-01-04T11:43:58;15.20;72.00
31677;DHT22;18385;51.572;6.578;2023-01-04T11:46:25;15.20;72.30
31677;DHT22;18385;51.572;6.578;2023-01-04T11:48:52;15.20;72.40
31677;DHT22;18385;51.572;6.578;2023-01-04T11:54:21;15.20;72.40
31677;DHT22;18385;51.572;6.578;2023-01-04T11:57:16;15.20;72.50
31677;DHT22;18385;51.572;6.578;2023-01-04T11:59:42;15.30;72.60
31677;DHT22;18385;51.572;6.578;2023-01-04T12:04:43;15.30;72.80
31677;DHT22;18385;51.572;6.578;2023-01-04T12:07:29;15.30;72.80
31677;DHT22;18385;51.572;6.578;2023-01-04T12:09:57;15.30;72.80
31677;DHT22;18385;51.572;6.578;2023-01-04T12:12:27;15.30;72.80
31677;DHT22;18385;51.572;6.578;2023-01-04T12:14:54;15.30;72.90
31677;DHT22;18385;51.572;6.578;2023-01-04T12:17:29;15.30;72.90
31677;DHT22;18385;51.572;6.578;2023-01-04T12:20:02;15.40;72.90
31677;DHT22;18385;51.572;6.578;2023-01-04T12:25:00;15.40;72.90
31677;DHT22;18385;51.572;6.578;2023-01-04T12:27:26;15.40;72.80
31677;DHT22;18385;51.572;6.578;2023-01-04T12:30:02;15.40;72.90
31677;DHT22;18385;51.572;6.578;2023-01-04T12:34:54;15.50;72.90
31677;DHT22;18385;51.572;6.578;2023-01-04T12:45:43;15.60;72.90
31677;DHT22;18385;51.572;6.578;2023-01-04T12:51:20;15.60;72.70
31677;DHT22;18385;51.572;6.578;2023-01-04T12:56:15;15.50;72.90
31677;DHT22;18385;51.572;6.578;2023-01-04T12:59:05;15.50;73.00
31677;DHT22;18385;51.572;6.578;2023-01-04T13:01:29;15.50;73.10
31677;DHT22;18385;51.572;6.578;2023-01-04T13:04:00;15.40;73.10
31677;DHT22;18385;51.572;6.578;2023-01-04T13:06:28;15.40;73.20
31677;DHT22;18385;51.572;6.578;2023-01-04T13:08:56;15.20;73.30
31677;DHT22;18385;51.572;6.578;2023-01-04T13:11:55;15.10;73.40
31677;DHT22;18385;51.572;6.578;2023-01-04T13:14:32;15.10;73.90
31677;DHT22;18385;51.572;6.578;2023-01-04T13:17:12;15.00;74.20
31677;DHT22;18385;51.572;6.578;2023-01-04T13:19:39;15.00;74.40
31677;DHT22;18385;51.572;6.578;2023-01-04T13:22:14;15.00;74.60
31677;DHT22;18385;51.572;6.578;2023-01-04T13:24:42;15.00;74.90
31677;DHT22;18385;51.572;6.578;2023-01-04T13:27:20;15.00;74.80
31677;DHT22;18385;51.572;6.578;2023-01-04T13:29:48;15.00;74.80
31677;DHT22;18385;51.572;6.578;2023-01-04T13:32:22;15.00;74.80
31677;DHT22;18385;51.572;6.578;2023-01-04T13:37:45;15.10;74.90
31677;DHT22;18385;51.572;6.578;2023-01-04T13:42:40;15.10;74.90
31677;DHT22;18385;51.572;6.578;2023-01-04T13:48:09;15.00;74.90
31677;DHT22;18385;51.572;6.578;2023-01-04T13:50:40;15.00;75.00
31677;DHT22;18385;51.572;6.578;2023-01-04T13:53:20;15.00;75.90
31677;DHT22;18385;51.572;6.578;2023-01-04T13:56:04;15.00;75.10
31677;DHT22;18385;51.572;6.578;2023-01-04T13:58:32;15.10;75.10
31677;DHT22;18385;51.572;6.578;2023-01-04T14:06:13;15.10;75.20
31677;DHT22;18385;51.572;6.578;2023-01-04T14:17:35;15.20;75.10
31677;DHT22;18385;51.572;6.578;2023-01-04T14:27:44;15.20;75.10
31677;DHT22;18385;51.572;6.578;2023-01-04T14:32:54;15.30;75.80
31677;DHT22;18385;51.572;6.578;2023-01-04T14:35:20;15.40;75.00
31677;DHT22;18385;51.572;6.578;2023-01-04T14:37:46;15.50;74.90
31677;DHT22;18385;51.572;6.578;2023-01-04T14:40:14;15.50;74.90
31677;DHT22;18385;51.572;6.578;2023-01-04T14:42:40;15.50;74.80
31677;DHT22;18385;51.572;6.578;2023-01-04T14:45:12;15.50;74.60
31677;DHT22;18385;51.572;6.578;2023-01-04T14:47:38;15.50;74.60
31677;DHT22;18385;51.572;6.578;2023-01-04T14:50:04;15.50;74.60
31677;DHT22;18385;51.572;6.578;2023-01-04T14:52:30;15.40;74.70
31677;DHT22;18385;51.572;6.578;2023-01-04T14:54:55;15.50;74.70
31677;DHT22;18385;51.572;6.578;2023-01-04T14:57:22;15.50;74.70
31677;DHT22;18385;51.572;6.578;2023-01-04T14:59:48;15.50;74.60
31677;DHT22;18385;51.572;6.578;2023-01-04T15:02:13;15.40;74.60
31677;DHT22;18385;51.572;6.578;2023-01-04T15:04:39;15.40;74.70
31677;DHT22;18385;51.572;6.578;2023-01-04T15:07:05;15.50;74.80
31677;DHT22;18385;51.572;6.578;2023-01-04T15:09:31;15.50;74.70
31677;DHT22;18385;51.572;6.578;2023-01-04T15:11:57;15.50;74.60
31677;DHT22;18385;51.572;6.578;2023-01-04T15:14:23;15.60;74.60
31677;DHT22;18385;51.572;6.578;2023-01-04T15:16:49;15.60;74.50
31677;DHT22;18385;51.572;6.578;2023-01-04T15:19:15;15.60;74.50
31677;DHT22;18385;51.572;6.578;2023-01-04T15:21:40;15.60;74.50
31677;DHT22;18385;51.572;6.578;2023-01-04T15:24:06;15.60;74.50
31677;DHT22;18385;51.572;6.578;2023-01-04T15:26:32;15.60;74.40
31677;DHT22;18385;51.572;6.578;2023-01-04T15:28:58;15.70;74.50
31677;DHT22;18385;51.572;6.578;2023-01-04T15:31:24;15.60;74.40
31677;DHT22;18385;51.572;6.578;2023-01-04T15:33:50;15.60;74.40
31677;DHT22;18385;51.572;6.578;2023-01-04T15:36:17;15.60;74.50
31677;DHT22;18385;51.572;6.578;2023-01-04T15:38:46;15.60;74.40
31677;DHT22;18385;51.572;6.578;2023-01-04T15:41:15;15.50;74.30
31677;DHT22;18385;51.572;6.578;2023-01-04T15:44:00;15.50;74.40
31677;DHT22;18385;51.572;6.578;2023-01-04T15:46:26;15.40;74.60
31677;DHT22;18385;51.572;6.578;2023-01-04T15:48:52;15.50;74.30
31677;DHT22;18385;51.572;6.578;2023-01-04T15:51:17;15.60;74.60
31677;DHT22;18385;51.572;6.578;2023-01-04T15:53:43;15.60;74.50
31677;DHT22;18385;51.572;6.578;2023-01-04T15:56:12;15.60;74.30
31677;DHT22;18385;51.572;6.578;2023-01-04T15:58:39;15.50;74.20
31677;DHT22;18385;51.572;6.578;2023-01-04T16:01:13;15.50;74.30
31677;DHT22;18385;51.572;6.578;2023-01-04T16:03:39;15.50;74.30
31677;DHT22;18385;51.572;6.578;2023-01-04T16:06:10;15.50;74.40
31677;DHT22;18385;51.572;6.578;2023-01-04T16:08:37;15.50;74.50
31677;DHT22;18385;51.572;6.578;2023-01-04T16:11:14;15.60;74.40
31677;DHT22;18385;51.572;6.578;2023-01-04T16:13:41;15.50;74.20
31677;DHT22;18385;51.572;6.578;2023-01-04T16:16:07;15.50;74.20
31677;DHT22;18385;51.572;6.578;2023-01-04T16:18:34;15.50;74.30
31677;DHT22;18385;51.572;6.578;2023-01-04T16:20:59;15.50;74.20
31677;DHT22;18385;51.572;6.578;2023-01-04T16:23:26;15.50;74.00
31677;DHT22;18385;51.572;6.578;2023-01-04T16:26:06;15.50;74.10
31677;DHT22;18385;51.572;6.578;2023-01-04T16:28:32;15.40;74.20
31677;DHT22;18385;51.572;6.578;2023-01-04T16:30:58;15.40;74.30
31677;DHT22;18385;51.572;6.578;2023-01-04T16:33:25;15.40;74.20
31677;DHT22;18385;51.572;6.578;2023-01-04T16:36:00;15.40;74.10
31677;DHT22;18385;51.572;6.578;2023-01-04T16:38:26;15.40;74.10
31677;DHT22;18385;51.572;6.578;2023-01-04T16:40:59;15.50;74.40
31677;DHT22;18385;51.572;6.578;2023-01-04T16:43:26;15.40;74.20
31677;DHT22;18385;51.572;6.578;2023-01-04T16:46:13;15.40;74.20
31677;DHT22;18385;51.572;6.578;2023-01-04T16:48:42;15.50;74.10
31677;DHT22;18385;51.572;6.578;2023-01-04T16:51:08;15.50;74.20
31677;DHT22;18385;51.572;6.578;2023-01-04T16:53:35;15.60;74.20
31677;DHT22;18385;51.572;6.578;2023-01-04T16:56:05;15.60;74.00
31677;DHT22;18385;51.572;6.578;2023-01-04T16:58:31;15.50;73.70
31677;DHT22;18385;51.572;6.578;2023-01-04T17:01:11;15.70;73.70
31677;DHT22;18385;51.572;6.578;2023-01-04T17:03:38;15.70;73.70
31677;DHT22;18385;51.572;6.578;2023-01-04T17:06:06;15.70;73.60
31677;DHT22;18385;51.572;6.578;2023-01-04T17:08:32;15.60;73.50
31677;DHT22;18385;51.572;6.578;2023-01-04T17:10:57;15.70;73.60
31677;DHT22;18385;51.572;6.578;2023-01-04T17:13:28;15.60;73.50
31677;DHT22;18385;51.572;6.578;2023-01-04T17:15:58;15.50;73.60
31677;DHT22;18385;51.572;6.578;2023-01-04T17:18:24;15.50;73.70
31677;DHT22;18385;51.572;6.578;2023-01-04T17:20:55;15.50;73.70
31677;DHT22;18385;51.572;6.578;2023-01-04T17:23:23;15.50;73.70
31677;DHT22;18385;51.572;6.578;2023-01-04T17:25:51;15.60;73.60
31677;DHT22;18385;51.572;6.578;2023-01-04T17:28:17;15.70;73.60
31677;DHT22;18385;51.572;6.578;2023-01-04T17:30:43;15.70;73.60
31677;DHT22;18385;51.572;6.578;2023-01-04T17:33:10;15.60;73.40
31677;DHT22;18385;51.572;6.578;2023-01-04T17:35:37;15.60;73.40
31677;DHT22;18385;51.572;6.578;2023-01-04T17:38:03;15.60;73.30
31677;DHT22;18385;51.572;6.578;2023-01-04T17:40:30;15.60;73.60